Time;durP1;ratioP1;P1;durP2;ratioP2;P2;SDS_P1;SDS_P2;PMS_P1;PMS_P2;Temp;Humidity;BMP_temperature;BMP_pressure;BME280_temperature;BME280_humidity;BME280_pressure;Samples;Min_cycle;Max_cycle;Signal;HPM_P1;HPM_P2
2021/04/20 00:01:01;;;;;;;43.85;34.60;;;9.90;91.40;;;;;;5032266;28;20052;-54
2021/04/20 00:03:27;;;;;;;44.92;34.58;;;9.90;91.20;;;;;;5032790;28;20083;-53
2021/04/20 00:05:52;;;;;;;45.42;35.00;;;9.90;91.30;;;;;;5031875;28;20033;-58
2021/04/20 00:08:18;;;;;;;47.15;35.10;;;9.90;91.20;;;;;;5033012;28;20116;-58
2021/04/20 00:10:43;;;;;;;48.95;35.97;;;9.80;91.40;;;;;;5030949;28;20437;-53
2021/04/20 00:13:09;;;;;;;47.65;34.92;;;9.80;91.30;;;;;;5030633;28;20029;-57
2021/04/20 00:15:35;;;;;;;46.75;34.38;;;9.70;91.40;;;;;;5032287;28;20156;-59
2021/04/20 00:18:04;;;;;;;48.53;36.30;;;9.50;91.70;;;;;;5030888;28;20037;-59
2021/04/20 00:20:30;;;;;;;44.47;34.60;;;9.60;91.70;;;;;;5031225;28;20030;-54
2021/04/20 00:22:55;;;;;;;43.70;34.78;;;9.50;91.70;;;;;;5032091;28;20017;-54
2021/04/20 00:25:22;;;;;;;45.42;33.20;;;9.50;91.60;;;;;;5032210;28;20107;-58
2021/04/20 00:27:48;;;;;;;43.10;33.33;;;9.60;91.60;;;;;;5032371;28;20039;-54
2021/04/20 00:30:14;;;;;;;45.58;34.95;;;9.80;91.20;;;;;;5032079;28;20183;-52
2021/04/20 00:32:41;;;;;;;44.88;34.97;;;9.90;90.70;;;;;;5032377;28;20060;-58
2021/04/20 00:35:07;;;;;;;46.63;34.50;;;9.90;90.80;;;;;;5039724;28;20030;-57
2021/04/20 00:37:33;;;;;;;43.60;32.35;;;9.80;91.00;;;;;;5027831;28;20041;-55
2021/04/20 00:39:59;;;;;;;42.47;31.63;;;9.70;91.20;;;;;;5040308;28;20037;-60
2021/04/20 00:42:24;;;;;;;40.60;32.70;;;9.90;90.70;;;;;;5037921;28;20032;-51
2021/04/20 00:44:50;;;;;;;40.42;31.75;;;10.00;90.50;;;;;;5039056;28;20457;-54
2021/04/20 00:47:16;;;;;;;42.40;32.22;;;10.20;90.20;;;;;;5038173;28;20033;-56
2021/04/20 00:49:41;;;;;;;42.80;32.55;;;10.20;90.10;;;;;;5040067;28;20033;-58
2021/04/20 00:52:07;;;;;;;42.03;31.15;;;10.30;90.00;;;;;;5039549;28;20034;-57
2021/04/20 00:54:33;;;;;;;42.47;32.25;;;10.30;89.80;;;;;;5039316;28;20508;-51
2021/04/20 00:56:59;;;;;;;39.92;31.88;;;10.20;89.80;;;;;;5037657;28;20038;-60
2021/04/20 00:59:24;;;;;;;44.58;32.33;;;10.30;89.80;;;;;;5039921;28;20056;-57
2021/04/20 01:01:50;;;;;;;41.75;32.58;;;10.20;90.00;;;;;;5038101;28;20448;-57
2021/04/20 01:04:17;;;;;;;40.53;31.60;;;10.10;90.20;;;;;;5040289;28;20400;-59
2021/04/20 01:06:44;;;;;;;41.05;32.17;;;10.20;90.10;;;;;;5038296;28;20041;-52
2021/04/20 01:09:13;;;;;;;40.90;31.10;;;10.20;90.00;;;;;;5039609;28;20057;-58
2021/04/20 01:11:40;;;;;;;40.72;30.80;;;10.20;90.00;;;;;;5037382;28;20044;-54
2021/04/20 01:14:07;;;;;;;41.47;31.42;;;10.10;90.30;;;;;;5034629;28;20044;-60
2021/04/20 01:16:33;;;;;;;39.50;30.88;;;10.20;90.30;;;;;;5028051;28;20036;-53
2021/04/20 01:19:00;;;;;;;41.88;32.53;;;10.20;90.20;;;;;;5025762;28;20056;-53
2021/04/20 01:21:26;;;;;;;41.55;31.75;;;10.00;90.60;;;;;;5044045;28;20034;-54
2021/04/20 01:24:09;;;;;;;42.28;31.98;;;10.10;90.60;;;;;;5037191;28;20039;-54
2021/04/20 01:26:44;;;;;;;42.35;31.80;;;10.10;90.70;;;;;;5024241;28;20046;-57
2021/04/20 01:29:11;;;;;;;42.30;31.75;;;10.20;90.50;;;;;;5023151;28;20033;-58
2021/04/20 01:31:40;;;;;;;46.10;34.35;;;10.10;90.40;;;;;;5017036;28;20034;-55
2021/04/20 01:34:07;;;;;;;43.28;32.88;;;9.90;90.90;;;;;;5024144;28;20063;-59
2021/04/20 01:36:33;;;;;;;44.35;33.08;;;9.50;91.70;;;;;;5018042;28;20022;-56
2021/04/20 01:39:00;;;;;;;51.60;33.80;;;9.50;91.70;;;;;;5024549;28;20512;-57
2021/04/20 01:41:28;;;;;;;48.72;33.50;;;9.50;91.90;;;;;;5026691;28;20045;-53
2021/04/20 01:43:55;;;;;;;44.92;35.30;;;9.40;92.10;;;;;;5034813;28;20044;-53
2021/04/20 01:46:21;;;;;;;45.50;34.10;;;9.50;92.10;;;;;;5015451;28;20048;-60
2021/04/20 01:48:49;;;;;;;45.17;34.92;;;9.60;91.80;;;;;;5023852;28;20036;-57
2021/04/20 01:51:18;;;;;;;47.38;32.15;;;9.60;91.80;;;;;;5015132;28;20058;-60
2021/04/20 01:53:45;;;;;;;45.85;33.75;;;9.70;91.60;;;;;;5019887;28;20033;-57
2021/04/20 01:56:11;;;;;;;40.15;32.28;;;9.70;91.40;;;;;;5025032;28;20040;-53
2021/04/20 01:58:39;;;;;;;41.45;31.75;;;9.80;91.20;;;;;;5019299;28;20080;-54
2021/04/20 02:01:07;;;;;;;40.85;31.13;;;9.90;91.20;;;;;;5026310;28;20168;-52
2021/04/20 02:03:34;;;;;;;44.83;31.65;;;10.00;90.90;;;;;;5027197;28;20449;-58
2021/04/20 02:06:00;;;;;;;42.65;31.92;;;10.10;90.70;;;;;;5014854;28;20044;-59
2021/04/20 02:08:26;;;;;;;48.33;37.70;;;10.00;90.70;;;;;;5014473;28;20133;-54
2021/04/20 02:10:56;;;;;;;42.00;32.38;;;10.10;90.60;;;;;;5046803;28;20025;-52
2021/04/20 02:13:21;;;;;;;40.88;31.98;;;10.00;90.80;;;;;;5022347;28;20037;-57
2021/04/20 02:15:47;;;;;;;43.22;32.33;;;10.00;90.80;;;;;;5019752;28;20452;-52
2021/04/20 02:18:13;;;;;;;41.63;32.65;;;10.00;90.70;;;;;;5031223;28;20025;-52
2021/04/20 02:20:40;;;;;;;40.33;31.67;;;10.10;90.60;;;;;;5033230;28;20036;-53
2021/04/20 02:23:07;;;;;;;41.00;30.95;;;10.10;90.50;;;;;;5027878;28;20033;-58
2021/04/20 02:25:34;;;;;;;45.08;33.83;;;10.20;90.50;;;;;;5029853;28;20057;-58
2021/04/20 02:28:00;;;;;;;43.65;33.47;;;10.00;90.80;;;;;;5033010;28;20057;-53
2021/04/20 02:30:28;;;;;;;42.10;32.78;;;10.00;91.00;;;;;;5022362;28;20080;-56
2021/04/20 02:32:56;;;;;;;45.33;32.90;;;10.10;90.70;;;;;;5028026;28;20034;-53
2021/04/20 02:35:21;;;;;;;43.33;32.83;;;10.00;90.80;;;;;;5018581;28;20453;-53
2021/04/20 02:37:48;;;;;;;42.97;32.78;;;10.10;90.60;;;;;;5015652;28;20034;-53
2021/04/20 02:40:22;;;;;;;43.47;33.25;;;9.80;91.10;;;;;;5025256;28;20105;-54
2021/04/20 02:42:53;;;;;;;45.67;34.25;;;9.80;91.10;;;;;;5012685;28;20122;-57
2021/04/20 02:45:23;;;;;;;44.97;33.30;;;9.80;91.00;;;;;;5017834;28;20053;-53
2021/04/20 02:47:50;;;;;;;45.63;33.75;;;9.90;90.80;;;;;;5021305;28;20456;-54
2021/04/20 02:50:18;;;;;;;48.67;32.65;;;9.70;91.10;;;;;;5019750;28;20037;-56
2021/04/20 02:52:47;;;;;;;46.88;34.15;;;9.70;91.00;;;;;;5013503;28;20389;-56
2021/04/20 02:55:14;;;;;;;44.47;32.70;;;9.60;91.20;;;;;;5022352;28;20034;-57
2021/04/20 02:57:43;;;;;;;44.35;33.28;;;9.60;91.50;;;;;;5024888;28;20073;-55
2021/04/20 03:00:13;;;;;;;49.28;34.35;;;9.70;91.30;;;;;;5028318;28;20485;-58
2021/04/20 03:02:42;;;;;;;45.38;34.08;;;9.70;91.00;;;;;;5026568;28;20041;-55
2021/04/20 03:05:13;;;;;;;44.10;32.97;;;9.60;91.40;;;;;;5027718;28;20025;-56
2021/04/20 03:07:39;;;;;;;44.45;34.33;;;9.60;91.30;;;;;;5013278;28;20033;-58
2021/04/20 03:10:05;;;;;;;45.40;33.13;;;9.70;91.30;;;;;;5025359;28;20029;-54
2021/04/20 03:12:31;;;;;;;48.80;35.15;;;9.60;91.30;;;;;;5016588;28;20026;-58
2021/04/20 03:14:59;;;;;;;47.88;35.05;;;9.60;91.30;;;;;;5022530;28;20032;-56
2021/04/20 03:17:25;;;;;;;45.67;33.42;;;9.50;91.50;;;;;;5020168;28;20033;-58
2021/04/20 03:19:51;;;;;;;48.53;34.35;;;9.60;91.50;;;;;;5034826;28;20033;-59
2021/04/20 03:22:17;;;;;;;51.75;35.53;;;9.40;91.70;;;;;;5029781;28;20037;-55
2021/04/20 03:25:03;;;;;;;51.13;35.58;;;9.40;91.70;;;;;;5019379;28;20029;-58
2021/04/20 03:27:29;;;;;;;52.10;34.45;;;9.40;91.80;;;;;;5023630;28;20033;-52
2021/04/20 03:29:55;;;;;;;47.92;35.40;;;9.40;91.80;;;;;;5030443;28;20052;-55
2021/04/20 03:32:21;;;;;;;44.53;33.75;;;9.50;91.60;;;;;;5039190;28;20606;-55
2021/04/20 03:35:14;;;;;;;46.33;34.22;;;9.50;91.50;;;;;;5015104;28;20553;-57
2021/04/20 03:37:51;;;;;;;51.20;36.47;;;9.50;91.60;;;;;;5012564;28;20559;-60
2021/04/20 03:40:18;;;;;;;47.03;35.25;;;9.40;91.60;;;;;;5021662;28;20488;-54
2021/04/20 03:42:51;;;;;;;46.28;34.78;;;9.40;91.60;;;;;;5022622;28;20579;-53
2021/04/20 03:45:22;;;;;;;51.45;34.92;;;9.30;91.90;;;;;;5020791;28;20580;-52
2021/04/20 03:47:53;;;;;;;45.67;35.47;;;9.20;92.00;;;;;;5030779;28;20519;-60
2021/04/20 03:50:27;;;;;;;47.83;35.58;;;9.20;92.10;;;;;;5019429;28;20425;-52
2021/04/20 03:52:58;;;;;;;53.80;37.85;;;9.10;92.10;;;;;;5018148;28;20113;-57
2021/04/20 03:55:27;;;;;;;50.92;35.78;;;9.10;92.10;;;;;;5017027;28;20080;-57
2021/04/20 03:57:55;;;;;;;50.08;34.80;;;9.30;92.00;;;;;;5022678;28;20501;-57
2021/04/20 04:00:22;;;;;;;47.00;36.25;;;9.20;91.90;;;;;;5014300;28;20037;-54
2021/04/20 04:02:48;;;;;;;48.90;35.15;;;9.40;91.70;;;;;;5011583;28;20034;-57
2021/04/20 04:05:19;;;;;;;45.72;33.97;;;9.30;91.80;;;;;;5014800;28;20056;-58
2021/04/20 04:07:48;;;;;;;50.25;37.15;;;9.30;91.50;;;;;;5010911;28;20026;-58
2021/04/20 04:10:14;;;;;;;49.40;36.00;;;9.30;91.70;;;;;;5013693;28;20123;-56
2021/04/20 04:12:42;;;;;;;47.15;34.75;;;9.40;91.60;;;;;;5012748;28;20049;-55
2021/04/20 04:15:10;;;;;;;50.25;36.80;;;9.40;91.40;;;;;;5012758;28;20077;-56
2021/04/20 04:17:38;;;;;;;48.17;35.58;;;9.40;91.60;;;;;;5030044;28;20084;-58
2021/04/20 04:20:05;;;;;;;50.05;36.80;;;9.40;91.50;;;;;;5030973;28;20032;-55
2021/04/20 04:22:42;;;;;;;54.20;38.15;;;9.40;91.60;;;;;;5029821;28;20032;-55
2021/04/20 04:25:11;;;;;;;52.25;37.63;;;9.20;91.90;;;;;;5019776;28;20022;-56
2021/04/20 04:27:43;;;;;;;51.53;37.53;;;9.00;92.10;;;;;;5028757;28;20037;-60
2021/04/20 04:30:10;;;;;;;53.08;37.85;;;8.80;92.80;;;;;;5010597;28;20497;-57
2021/04/20 04:32:40;;;;;;;54.63;37.35;;;9.10;92.20;;;;;;5030295;28;20060;-57
2021/04/20 04:35:07;;;;;;;57.05;38.60;;;9.10;92.10;;;;;;5012114;28;20030;-57
2021/04/20 04:37:35;;;;;;;55.42;38.50;;;9.10;92.00;;;;;;5040848;28;20033;-60
2021/04/20 04:40:06;;;;;;;50.67;36.63;;;9.20;92.00;;;;;;5025073;28;20022;-55
2021/04/20 04:42:32;;;;;;;56.08;38.17;;;9.20;91.80;;;;;;5030137;28;20101;-56
2021/04/20 04:45:01;;;;;;;51.67;37.45;;;9.30;91.70;;;;;;5019252;28;20033;-56
2021/04/20 04:47:28;;;;;;;54.60;37.63;;;9.10;92.10;;;;;;5025598;28;20025;-59
2021/04/20 04:49:59;;;;;;;56.20;38.67;;;9.00;92.40;;;;;;5012387;28;20037;-57
2021/04/20 04:52:25;;;;;;;51.40;36.78;;;9.20;92.10;;;;;;5028835;28;20049;-56
2021/04/20 04:54:51;;;;;;;50.65;37.40;;;9.30;91.80;;;;;;5015249;28;20038;-54
2021/04/20 04:57:18;;;;;;;58.85;39.75;;;9.20;91.70;;;;;;5033625;28;20044;-52
2021/04/20 04:59:45;;;;;;;55.00;37.92;;;9.10;92.00;;;;;;5010378;28;20030;-55
2021/04/20 05:02:12;;;;;;;52.53;36.70;;;9.10;92.20;;;;;;5030525;28;20069;-56
2021/04/20 05:04:38;;;;;;;52.40;38.25;;;9.20;91.80;;;;;;5027491;28;20128;-59
2021/04/20 05:07:03;;;;;;;49.70;36.92;;;9.30;91.70;;;;;;5030742;28;20496;-60
2021/04/20 05:09:29;;;;;;;54.88;38.47;;;9.30;91.50;;;;;;5021529;28;20604;-58
2021/04/20 05:11:55;;;;;;;53.60;37.22;;;9.40;91.30;;;;;;5013559;28;20097;-53
2021/04/20 05:14:22;;;;;;;51.17;36.67;;;9.30;91.40;;;;;;5012901;28;20025;-58
2021/04/20 05:16:53;;;;;;;60.00;39.35;;;9.00;92.00;;;;;;5023554;28;20040;-59
2021/04/20 05:19:31;;;;;;;56.45;39.45;;;9.20;91.60;;;;;;5022677;28;20034;-56
2021/04/20 05:21:58;;;;;;;53.42;38.35;;;9.30;91.40;;;;;;5027044;28;20066;-50
2021/04/20 05:24:23;;;;;;;49.50;35.78;;;9.20;91.40;;;;;;5024545;28;20041;-59
2021/04/20 05:26:49;;;;;;;51.47;36.03;;;9.40;91.50;;;;;;5018995;28;20037;-54
2021/04/20 05:29:16;;;;;;;52.55;36.30;;;9.50;91.00;;;;;;5019449;28;20449;-58
2021/04/20 05:31:42;;;;;;;50.15;35.53;;;9.60;91.00;;;;;;5021527;28;20029;-56
2021/04/20 05:34:08;;;;;;;49.88;35.05;;;9.50;90.90;;;;;;5013881;28;20053;-59
2021/04/20 05:36:35;;;;;;;51.90;36.17;;;9.50;90.90;;;;;;5018438;28;20041;-56
2021/04/20 05:39:07;;;;;;;51.92;36.17;;;9.60;90.50;;;;;;5020761;28;20541;-59
2021/04/20 05:41:34;;;;;;;43.35;32.65;;;9.70;90.60;;;;;;5024256;28;20037;-55
2021/04/20 05:44:03;;;;;;;47.78;33.97;;;9.90;90.60;;;;;;5014977;28;20061;-54
2021/04/20 05:46:29;;;;;;;46.88;33.40;;;10.20;89.30;;;;;;5017094;28;20099;-54
2021/04/20 05:48:56;;;;;;;45.35;32.20;;;10.20;88.10;;;;;;5033068;28;20038;-55
2021/04/20 05:51:23;;;;;;;48.13;33.83;;;10.00;88.40;;;;;;5034197;28;20039;-53
2021/04/20 05:53:52;;;;;;;44.47;34.30;;;9.90;89.90;;;;;;5035390;28;20248;-56
2021/04/20 05:56:20;;;;;;;47.55;33.75;;;9.80;89.70;;;;;;5032241;28;20034;-55
2021/04/20 05:58:50;;;;;;;45.80;32.22;;;9.80;89.70;;;;;;5018535;28;20049;-57
2021/04/20 06:01:15;;;;;;;48.45;31.50;;;9.90;89.20;;;;;;5014667;28;20026;-59
2021/04/20 06:03:43;;;;;;;43.20;31.70;;;10.00;89.10;;;;;;5020218;28;20125;-56
2021/04/20 06:06:12;;;;;;;49.60;31.95;;;10.10;88.90;;;;;;5021195;28;20026;-53
2021/04/20 06:08:39;;;;;;;41.53;32.05;;;10.20;88.60;;;;;;5020063;28;20061;-58
2021/04/20 06:11:06;;;;;;;38.80;30.20;;;10.30;87.90;;;;;;5013947;28;20030;-56
2021/04/20 06:13:32;;;;;;;41.20;29.20;;;10.30;88.40;;;;;;5018056;28;20515;-56
2021/04/20 06:15:58;;;;;;;45.05;30.25;;;10.40;87.70;;;;;;5023862;28;20026;-53
2021/04/20 06:18:24;;;;;;;66.00;43.83;;;10.50;87.50;;;;;;5035105;28;20025;-58
2021/04/20 06:20:53;;;;;;;44.38;31.58;;;10.60;88.00;;;;;;5031163;28;20061;-57
2021/04/20 06:23:20;;;;;;;39.47;29.40;;;10.80;86.80;;;;;;5020963;28;20040;-55
2021/04/20 06:25:46;;;;;;;42.33;29.92;;;10.80;86.50;;;;;;5026186;28;20076;-59
2021/04/20 06:28:13;;;;;;;45.28;29.70;;;10.90;86.10;;;;;;5009106;28;20112;-55
2021/04/20 06:30:39;;;;;;;41.70;29.92;;;11.00;85.50;;;;;;5023157;28;20040;-56
2021/04/20 06:33:06;;;;;;;37.58;28.15;;;11.00;85.70;;;;;;5021064;28;20026;-57
2021/04/20 06:35:33;;;;;;;40.00;29.05;;;11.10;85.70;;;;;;5029876;28;20036;-57
2021/04/20 06:38:00;;;;;;;37.55;28.63;;;11.20;85.40;;;;;;5018627;28;20022;-56
2021/04/20 06:40:39;;;;;;;38.90;28.80;;;11.30;84.80;;;;;;5018833;28;20081;-55
2021/04/20 06:43:13;;;;;;;42.03;29.90;;;11.50;84.70;;;;;;5044261;28;20038;-55
2021/04/20 06:45:49;;;;;;;43.58;30.33;;;11.70;83.60;;;;;;5022147;28;20044;-54
2021/04/20 06:48:31;;;;;;;40.83;28.42;;;11.60;83.70;;;;;;5023135;28;20038;-55
2021/04/20 06:50:59;;;;;;;41.15;26.88;;;11.40;84.20;;;;;;5031358;28;20032;-59
2021/04/20 06:53:37;;;;;;;38.53;26.20;;;11.50;83.80;;;;;;5028258;28;20091;-56
2021/04/20 06:56:06;;;;;;;38.25;25.85;;;11.60;84.00;;;;;;5026490;28;20040;-56
2021/04/20 06:58:44;;;;;;;32.72;23.30;;;11.70;83.20;;;;;;5035109;28;20087;-57
2021/04/20 07:01:16;;;;;;;31.95;21.05;;;11.90;82.50;;;;;;5030585;28;20032;-52
2021/04/20 07:04:05;;;;;;;23.90;18.95;;;11.90;81.50;;;;;;5033845;28;20037;-56
2021/04/20 07:06:33;;;;;;;30.55;19.60;;;11.80;81.20;;;;;;5039744;28;20360;-59
2021/04/20 07:09:02;;;;;;;27.70;20.25;;;11.80;81.30;;;;;;5031268;28;20029;-56
2021/04/20 07:11:31;;;;;;;25.55;19.02;;;11.90;80.90;;;;;;5035221;28;20043;-53
2021/04/20 07:13:59;;;;;;;29.73;18.95;;;11.80;81.30;;;;;;5046445;28;20120;-59
2021/04/20 07:16:29;;;;;;;24.98;19.08;;;11.80;81.00;;;;;;5020148;28;20119;-55
2021/04/20 07:19:44;;;;;;;25.67;18.95;;;11.90;81.00;;;;;;5026480;28;20108;-59
2021/04/20 07:22:42;;;;;;;25.35;18.00;;;12.00;80.70;;;;;;5033156;28;20033;-58
2021/04/20 07:25:20;;;;;;;26.88;19.00;;;12.10;80.30;;;;;;5020610;28;20022;-55
2021/04/20 07:28:03;;;;;;;28.15;19.92;;;12.10;80.40;;;;;;5025326;28;20049;-59
2021/04/20 07:30:38;;;;;;;29.40;18.60;;;12.10;80.10;;;;;;5027257;28;20052;-61
2021/04/20 07:33:09;;;;;;;30.63;19.95;;;12.10;79.60;;;;;;5023775;28;20045;-55
2021/04/20 07:35:36;;;;;;;28.02;19.85;;;11.80;81.00;;;;;;5022925;28;20030;-54
2021/04/20 07:38:29;;;;;;;30.83;19.98;;;11.60;81.90;;;;;;5020997;28;20516;-56
2021/04/20 07:41:00;;;;;;;31.90;20.40;;;11.80;81.50;;;;;;5022407;28;20049;-55
2021/04/20 07:43:34;;;;;;;26.52;19.73;;;11.90;80.50;;;;;;5032121;28;20095;-57
2021/04/20 07:46:08;;;;;;;28.92;20.05;;;11.80;81.00;;;;;;5025523;28;20092;-59
2021/04/20 07:48:59;;;;;;;32.03;19.13;;;11.80;80.70;;;;;;5016602;28;20042;-59
2021/04/20 07:51:53;;;;;;;22.88;17.35;;;11.90;80.80;;;;;;5022933;28;20061;-56
2021/04/20 07:54:40;;;;;;;27.75;18.15;;;11.90;80.20;;;;;;5027312;28;20038;-55
2021/04/20 07:57:38;;;;;;;25.75;19.35;;;11.90;80.40;;;;;;5033107;28;20029;-58
2021/04/20 08:00:15;;;;;;;24.65;18.15;;;11.80;80.50;;;;;;5028521;28;20064;-59
2021/04/20 08:02:54;;;;;;;26.67;20.23;;;11.80;81.50;;;;;;5032746;28;20037;-57
2021/04/20 08:05:27;;;;;;;26.90;20.75;;;11.90;80.70;;;;;;5031082;28;20692;-56
2021/04/20 08:08:02;;;;;;;29.05;20.33;;;11.70;80.40;;;;;;5033178;28;20034;-56
2021/04/20 08:10:46;;;;;;;;;;;11.70;80.90;;;;;;5031718;28;20029;-56
2021/04/20 08:13:26;;;;;;;33.53;20.80;;;11.90;81.10;;;;;;5032819;28;19909;-58
2021/04/20 08:15:55;;;;;;;28.13;20.55;;;12.10;80.20;;;;;;5029954;28;20013;-56
2021/04/20 08:19:02;;;;;;;37.83;22.13;;;12.20;80.30;;;;;;5032276;28;20124;-57
2021/04/20 08:21:31;;;;;;;31.83;22.15;;;12.40;80.10;;;;;;5011989;28;20045;-56
2021/04/20 08:23:58;;;;;;;41.53;24.25;;;12.60;79.90;;;;;;5031204;28;20037;-58
2021/04/20 08:26:32;;;;;;;32.03;23.45;;;12.70;79.20;;;;;;5029957;28;20038;-57
2021/04/20 08:29:02;;;;;;;39.60;22.17;;;12.60;79.60;;;;;;5028757;28;20038;-57
2021/04/20 08:31:38;;;;;;;25.75;17.20;;;12.60;79.60;;;;;;5032401;28;20044;-55
2021/04/20 08:34:19;;;;;;;27.17;17.50;;;12.50;77.90;;;;;;5029035;28;20037;-55
2021/04/20 08:37:00;;;;;;;26.38;18.23;;;12.60;77.40;;;;;;5019106;28;20719;-59
2021/04/20 08:39:37;;;;;;;22.02;15.90;;;12.70;77.70;;;;;;5018793;28;20037;-55
2021/04/20 08:42:22;;;;;;;29.42;19.25;;;12.70;77.40;;;;;;5032180;28;20029;-58
2021/04/20 08:45:20;;;;;;;24.33;17.88;;;13.00;77.40;;;;;;5028083;28;20026;-56
2021/04/20 08:48:10;;;;;;;29.30;18.85;;;13.00;77.10;;;;;;4989195;28;20562;-55
2021/04/20 08:50:41;;;;;;;27.25;18.33;;;13.20;77.20;;;;;;5023157;28;20092;-57
2021/04/20 08:53:33;;;;;;;22.00;14.70;;;13.40;76.50;;;;;;5011725;28;20088;-59
2021/04/20 08:56:23;;;;;;;18.27;12.18;;;13.50;74.30;;;;;;5026638;28;20102;-58
2021/04/20 08:59:16;;;;;;;18.55;12.68;;;13.10;72.40;;;;;;5032141;28;20017;-55
2021/04/20 09:02:13;;;;;;;21.67;13.80;;;13.10;73.00;;;;;;5024048;28;20037;-60
2021/04/20 09:05:15;;;;;;;23.13;13.82;;;13.30;72.40;;;;;;5015646;28;20025;-62
2021/04/20 09:08:07;;;;;;;19.35;13.32;;;13.60;72.40;;;;;;5010273;28;20034;-59
2021/04/20 09:10:45;;;;;;;24.17;14.75;;;13.60;72.10;;;;;;5032362;28;20037;-58
2021/04/20 09:13:20;;;;;;;18.38;13.20;;;13.50;72.20;;;;;;5015968;28;20048;-56
2021/04/20 09:15:50;;;;;;;20.73;13.95;;;13.70;71.40;;;;;;5021806;28;20040;-59
2021/04/20 09:18:22;;;;;;;19.85;13.85;;;13.60;71.90;;;;;;5021835;28;20065;-59
2021/04/20 09:21:00;;;;;;;20.77;15.05;;;13.90;71.50;;;;;;5031260;28;20029;-57
2021/04/20 09:23:52;;;;;;;18.60;13.68;;;13.90;71.50;;;;;;5015394;28;20029;-57
2021/04/20 09:26:45;;;;;;;19.23;13.82;;;13.90;72.00;;;;;;5026966;28;20041;-57
2021/04/20 09:29:23;;;;;;;26.10;15.90;;;13.90;72.20;;;;;;5015141;28;20026;-53
2021/04/20 09:31:58;;;;;;;25.20;16.05;;;14.00;72.50;;;;;;5024461;28;20052;-57
2021/04/20 09:34:38;;;;;;;21.10;14.38;;;14.20;71.90;;;;;;5033198;28;20037;-60
2021/04/20 09:37:06;;;;;;;28.60;17.27;;;14.00;72.30;;;;;;5036386;28;20037;-56
2021/04/20 09:39:38;;;;;;;23.83;15.88;;;13.90;71.90;;;;;;5032982;28;20099;-55
2021/04/20 09:42:05;;;;;;;18.92;14.13;;;14.20;71.70;;;;;;5035456;28;20017;-57
2021/04/20 09:44:49;;;;;;;20.15;14.32;;;14.30;70.40;;;;;;5033091;28;20547;-55
2021/04/20 09:47:46;;;;;;;20.15;14.02;;;14.40;70.50;;;;;;5034959;28;20048;-57
2021/04/20 09:50:17;;;;;;;21.95;14.18;;;14.30;70.40;;;;;;5034541;28;20027;-59
2021/04/20 09:52:57;;;;;;;22.15;13.57;;;14.00;70.60;;;;;;5033027;28;20025;-56
2021/04/20 09:55:28;;;;;;;21.70;14.75;;;14.20;70.30;;;;;;5034884;28;20025;-54
2021/04/20 09:57:57;;;;;;;22.23;14.73;;;14.20;70.40;;;;;;5036297;28;20060;-57
2021/04/20 10:00:23;;;;;;;29.27;14.93;;;14.20;70.80;;;;;;5038644;28;20053;-60
2021/04/20 10:02:56;;;;;;;21.50;14.75;;;14.20;71.10;;;;;;5035618;28;20034;-60
2021/04/20 10:05:35;;;;;;;20.83;14.77;;;14.20;71.40;;;;;;5036625;28;20455;-54
2021/04/20 10:08:19;;;;;;;22.55;14.90;;;14.30;71.60;;;;;;5033504;28;20033;-55
2021/04/20 10:11:16;;;;;;;25.40;16.33;;;14.60;71.30;;;;;;5033903;28;20041;-56
2021/04/20 10:14:19;;;;;;;21.13;16.00;;;14.70;71.50;;;;;;5029696;28;20049;-56
2021/04/20 10:17:10;;;;;;;20.40;15.68;;;14.90;70.30;;;;;;5041862;28;20765;-59
2021/04/20 10:19:51;;;;;;;19.88;15.20;;;14.90;70.30;;;;;;5018165;28;20061;-56
2021/04/20 10:22:32;;;;;;;19.95;15.60;;;14.80;70.50;;;;;;5029870;28;20053;-55
2021/04/20 10:25:39;;;;;;;28.02;16.45;;;15.00;69.90;;;;;;5023910;28;20495;-58
2021/04/20 10:28:29;;;;;;;23.67;14.82;;;14.90;70.30;;;;;;5019368;28;20053;-59
2021/04/20 10:31:01;;;;;;;23.45;14.32;;;14.90;69.80;;;;;;5035356;28;20086;-57
2021/04/20 10:33:29;;;;;;;23.58;15.23;;;14.90;70.10;;;;;;5029470;28;20026;-54
2021/04/20 10:35:57;;;;;;;22.40;15.65;;;15.10;69.40;;;;;;5035058;28;20052;-56
2021/04/20 10:38:29;;;;;;;20.70;15.25;;;15.20;68.90;;;;;;5032595;28;20435;-56
2021/04/20 10:40:55;;;;;;;29.85;15.52;;;15.20;68.90;;;;;;5039502;28;20044;-56
2021/04/20 10:43:25;;;;;;;24.25;14.55;;;15.30;68.50;;;;;;5029312;28;20558;-59
2021/04/20 10:45:53;;;;;;;22.63;15.65;;;15.50;67.70;;;;;;5045719;28;20094;-60
2021/04/20 10:48:27;;;;;;;26.10;17.02;;;15.60;67.80;;;;;;5028447;28;20121;-56
2021/04/20 10:50:54;;;;;;;26.20;16.10;;;15.60;67.90;;;;;;5043586;28;20029;-59
2021/04/20 10:53:26;;;;;;;25.00;16.92;;;15.50;69.00;;;;;;5042010;28;20067;-55
2021/04/20 10:56:00;;;;;;;20.48;15.27;;;15.50;69.10;;;;;;5033778;28;20026;-61
2021/04/20 10:58:26;;;;;;;25.98;16.63;;;15.70;68.60;;;;;;5021312;28;20034;-62
2021/04/20 11:00:53;;;;;;;20.63;16.58;;;15.90;68.10;;;;;;5022698;28;20055;-55
2021/04/20 11:03:39;;;;;;;22.65;16.13;;;16.00;68.00;;;;;;5042764;28;20025;-56
2021/04/20 11:06:07;;;;;;;25.65;16.48;;;16.10;67.20;;;;;;5028509;28;20045;-54
2021/04/20 11:08:37;;;;;;;18.10;14.65;;;16.10;67.40;;;;;;5037156;28;20036;-57
2021/04/20 11:11:05;;;;;;;18.98;15.65;;;16.20;67.30;;;;;;5044517;28;20443;-58
2021/04/20 11:13:36;;;;;;;24.05;17.17;;;16.40;67.10;;;;;;5046431;28;20047;-59
2021/04/20 11:16:05;;;;;;;24.15;16.90;;;16.50;67.00;;;;;;5041597;28;20045;-57
2021/04/20 11:18:36;;;;;;;24.77;16.35;;;16.50;67.30;;;;;;5033438;28;20033;-54
2021/04/20 11:21:07;;;;;;;23.58;16.63;;;16.50;66.50;;;;;;5030209;28;20085;-56
2021/04/20 11:23:45;;;;;;;22.77;16.60;;;16.40;66.90;;;;;;5011033;28;20032;-55
2021/04/20 11:26:14;;;;;;;22.08;16.25;;;16.10;68.00;;;;;;5027495;28;20041;-60
2021/04/20 11:28:43;;;;;;;22.73;15.48;;;16.20;67.80;;;;;;5036670;28;20104;-60
2021/04/20 11:31:23;;;;;;;19.65;14.52;;;16.50;67.20;;;;;;5023028;28;20085;-59
2021/04/20 11:34:00;;;;;;;19.27;15.40;;;16.80;65.90;;;;;;5021280;28;20109;-59
2021/04/20 11:36:40;;;;;;;27.98;17.52;;;16.90;65.70;;;;;;5032793;28;20029;-57
2021/04/20 11:39:29;;;;;;;24.77;16.85;;;16.60;66.20;;;;;;5037197;28;20031;-57
2021/04/20 11:41:59;;;;;;;23.00;16.85;;;16.90;65.90;;;;;;5027161;28;20080;-58
2021/04/20 11:44:32;;;;;;;23.75;16.60;;;16.70;66.60;;;;;;5031160;28;20579;-59
2021/04/20 11:46:59;;;;;;;20.98;15.52;;;16.70;65.60;;;;;;5034739;28;20039;-55
2021/04/20 11:49:28;;;;;;;18.38;15.13;;;16.70;65.50;;;;;;5030411;28;20040;-60
2021/04/20 11:51:56;;;;;;;19.08;13.90;;;16.60;65.30;;;;;;5032336;28;20489;-57
2021/04/20 11:54:35;;;;;;;18.42;14.68;;;16.80;64.60;;;;;;5028949;28;20087;-55
2021/04/20 11:57:03;;;;;;;26.45;16.13;;;17.00;64.20;;;;;;5032397;28;20341;-60
2021/04/20 11:59:30;;;;;;;22.42;16.48;;;17.20;64.20;;;;;;5030516;28;20527;-57
2021/04/20 12:01:57;;;;;;;25.55;16.45;;;17.20;65.00;;;;;;5031881;28;20036;-56
2021/04/20 12:04:31;;;;;;;32.47;16.88;;;17.30;64.80;;;;;;5029733;28;20102;-57
2021/04/20 12:06:58;;;;;;;24.30;17.17;;;17.20;64.90;;;;;;5027949;28;20038;-57
2021/04/20 12:09:35;;;;;;;19.70;16.10;;;17.20;64.80;;;;;;5035359;28;20118;-59
2021/04/20 12:12:02;;;;;;;22.85;16.13;;;17.20;64.50;;;;;;5032092;28;20041;-61
2021/04/20 12:14:30;;;;;;;20.05;16.05;;;17.40;64.00;;;;;;5042080;28;20029;-57
2021/04/20 12:16:57;;;;;;;21.60;15.80;;;17.50;64.90;;;;;;5042547;28;20041;-55
2021/04/20 12:19:27;;;;;;;20.10;15.35;;;17.50;65.00;;;;;;5034734;28;20295;-59
2021/04/20 12:21:55;;;;;;;18.77;13.85;;;17.50;63.50;;;;;;5031487;28;20041;-58
2021/04/20 12:24:26;;;;;;;23.30;17.42;;;17.40;63.60;;;;;;5026992;28;20709;-61
2021/04/20 12:26:57;;;;;;;20.58;15.75;;;17.30;64.60;;;;;;5022410;28;20048;-61
2021/04/20 12:29:31;;;;;;;19.02;14.48;;;17.20;65.20;;;;;;5036127;28;20460;-57
2021/04/20 12:31:57;;;;;;;16.75;14.50;;;17.30;64.00;;;;;;5029171;28;20056;-56
2021/04/20 12:34:29;;;;;;;17.85;14.77;;;17.60;62.50;;;;;;5042352;28;20066;-58
2021/04/20 12:37:01;;;;;;;20.95;15.20;;;17.70;63.30;;;;;;5044421;28;20104;-56
2021/04/20 12:39:35;;;;;;;19.60;13.98;;;17.90;63.20;;;;;;5020904;28;20025;-59
2021/04/20 12:42:03;;;;;;;19.70;13.38;;;18.10;60.80;;;;;;5026298;28;20028;-56
2021/04/20 12:44:37;;;;;;;19.67;15.27;;;18.10;60.60;;;;;;5042637;28;20041;-60
2021/04/20 12:47:05;;;;;;;17.48;14.75;;;17.80;62.80;;;;;;5040221;28;20032;-55
2021/04/20 12:49:33;;;;;;;18.52;14.85;;;18.10;61.40;;;;;;5027705;28;20034;-60
2021/04/20 12:52:06;;;;;;;18.17;14.88;;;18.10;61.80;;;;;;5022822;28;20076;-57
2021/04/20 12:54:37;;;;;;;23.55;17.58;;;18.30;61.10;;;;;;5012754;28;20040;-58